createdAt,value
2022-11-20T00:02:02.039Z,11.85
2022-11-20T00:04:28.866Z,11.65
2022-11-20T00:07:04.940Z,14.25
2022-11-20T00:09:31.773Z,11.93
2022-11-20T00:11:59.011Z,10.70
2022-11-20T00:14:26.072Z,11.23
2022-11-20T00:16:52.908Z,14.82
2022-11-20T00:19:19.813Z,11.15
2022-11-20T00:21:46.864Z,12.95
2022-11-20T00:24:13.536Z,11.18
2022-11-20T00:26:40.233Z,12.38
2022-11-20T00:29:11.866Z,11.95
2022-11-20T00:31:41.646Z,12.60
2022-11-20T00:34:08.766Z,12.07
2022-11-20T00:36:38.838Z,11.38
2022-11-20T00:39:06.008Z,13.15
2022-11-20T00:41:58.778Z,11.35
2022-11-20T00:44:44.268Z,13.38
2022-11-20T00:47:20.363Z,13.95
2022-11-20T00:50:38.933Z,12.05
2022-11-20T00:53:28.859Z,11.52
2022-11-20T00:55:56.672Z,13.23
2022-11-20T00:58:30.372Z,13.30
2022-11-20T01:01:08.064Z,12.38
2022-11-20T01:06:11.593Z,11.30
2022-11-20T01:08:38.950Z,11.88
2022-11-20T01:11:07.745Z,12.75
2022-11-20T01:13:42.364Z,12.35
2022-11-20T01:16:23.134Z,12.50
2022-11-20T01:19:01.874Z,15.80
2022-11-20T01:21:45.703Z,13.45
2022-11-20T01:24:14.057Z,13.55
2022-11-20T01:26:44.674Z,14.32
2022-11-20T01:29:16.120Z,14.02
2022-11-20T01:31:43.408Z,12.57
2022-11-20T01:34:23.440Z,12.80
2022-11-20T01:36:56.624Z,14.68
2022-11-20T01:39:25.278Z,14.20
2022-11-20T01:42:14.345Z,12.10
2022-11-20T01:44:55.912Z,15.45
2022-11-20T01:47:36.851Z,13.45
2022-11-20T01:50:06.751Z,11.65
2022-11-20T01:52:39.119Z,15.20
2022-11-20T01:55:13.895Z,12.95
2022-11-20T01:57:48.270Z,11.93
2022-11-20T02:00:16.200Z,12.60
2022-11-20T02:02:44.988Z,13.27
2022-11-20T02:05:38.310Z,15.18
2022-11-20T02:08:06.212Z,13.73
2022-11-20T02:10:33.372Z,17.77
2022-11-20T02:13:18.889Z,13.57
2022-11-20T02:15:45.799Z,12.20
2022-11-20T02:18:14.939Z,17.50
2022-11-20T02:20:44.409Z,12.48
2022-11-20T02:23:18.205Z,18.65
2022-11-20T02:25:48.841Z,15.90
2022-11-20T02:28:23.273Z,16.52
2022-11-20T02:30:50.098Z,13.55
2022-11-20T02:33:17.015Z,13.32
2022-11-20T02:35:48.085Z,13.48
2022-11-20T02:38:15.599Z,14.88
2022-11-20T02:40:43.031Z,13.52
2022-11-20T02:43:10.337Z,13.48
2022-11-20T02:45:37.109Z,12.93
2022-11-20T02:48:04.229Z,13.50
2022-11-20T02:50:31.007Z,12.88
2022-11-20T02:52:57.804Z,15.82
2022-11-20T02:55:24.766Z,12.85
2022-11-20T02:57:54.522Z,13.90
2022-11-20T03:00:21.448Z,14.05
2022-11-20T03:02:48.146Z,13.70
2022-11-20T03:05:14.990Z,12.85
2022-11-20T03:07:44.731Z,14.07
2022-11-20T03:10:15.069Z,17.52
2022-11-20T03:12:57.374Z,13.50
2022-11-20T03:15:32.517Z,13.07
2022-11-20T03:17:59.759Z,13.18
2022-11-20T03:20:26.654Z,14.45
2022-11-20T03:22:55.083Z,14.02
2022-11-20T03:25:22.391Z,15.05
2022-11-20T03:27:49.551Z,16.08
2022-11-20T03:30:19.385Z,17.08
2022-11-20T03:32:46.535Z,13.55
2022-11-20T03:35:13.449Z,15.05
2022-11-20T03:37:40.139Z,14.65
2022-11-20T03:40:07.255Z,14.15
2022-11-20T03:42:53.666Z,14.02
2022-11-20T03:45:34.335Z,14.13
2022-11-20T03:48:09.466Z,13.48
2022-11-20T03:50:39.436Z,13.88
2022-11-20T03:53:09.443Z,14.00
2022-11-20T03:55:39.670Z,15.02
2022-11-20T03:58:06.495Z,13.20
2022-11-20T04:00:33.340Z,13.57
2022-11-20T04:03:00.474Z,14.25
2022-11-20T04:05:27.383Z,13.70
2022-11-20T04:07:55.170Z,14.18
2022-11-20T04:10:22.275Z,13.75
2022-11-20T04:12:49.053Z,16.88
2022-11-20T04:15:16.097Z,14.88
2022-11-20T04:17:45.523Z,14.68
2022-11-20T04:20:13.035Z,14.32
2022-11-20T04:22:39.834Z,14.25
2022-11-20T04:25:06.575Z,19.75
2022-11-20T04:27:33.314Z,13.02
2022-11-20T04:30:01.800Z,14.45
2022-11-20T04:32:31.779Z,13.48
2022-11-20T04:35:04.656Z,14.57
2022-11-20T04:37:34.978Z,20.23
2022-11-20T04:40:01.925Z,14.07
2022-11-20T04:42:31.767Z,16.15
2022-11-20T04:44:58.831Z,15.32
2022-11-20T04:47:25.917Z,14.63
2022-11-20T04:49:53.164Z,14.80
2022-11-20T04:52:20.020Z,15.75
2022-11-20T04:54:46.611Z,13.13
2022-11-20T04:57:14.694Z,14.52
2022-11-20T04:59:47.386Z,14.70
2022-11-20T05:02:14.442Z,17.38
2022-11-20T05:04:41.241Z,16.58
2022-11-20T05:07:08.108Z,14.32
2022-11-20T05:09:40.185Z,17.92
2022-11-20T05:12:09.286Z,17.38
2022-11-20T05:14:39.550Z,15.90
2022-11-20T05:17:19.899Z,14.88
2022-11-20T05:19:53.309Z,16.48
2022-11-20T05:22:29.287Z,14.98
2022-11-20T05:27:45.581Z,16.27
2022-11-20T05:30:15.639Z,17.95
2022-11-20T05:32:42.550Z,17.17
2022-11-20T05:35:09.916Z,15.32
2022-11-20T05:37:39.625Z,20.45
2022-11-20T05:40:07.162Z,17.17
2022-11-20T05:42:42.845Z,18.50
2022-11-20T05:45:09.931Z,17.77
2022-11-20T05:47:36.659Z,23.15
2022-11-20T05:50:03.378Z,15.70
2022-11-20T05:52:30.530Z,17.95
2022-11-20T05:54:57.641Z,19.70
2022-11-20T05:57:41.057Z,20.98
2022-11-20T06:00:15.273Z,19.60
2022-11-20T06:02:42.282Z,18.77
2022-11-20T06:05:43.862Z,18.10
2022-11-20T06:08:21.449Z,16.23
2022-11-20T06:10:48.262Z,17.73
2022-11-20T06:13:15.110Z,20.45
2022-11-20T06:15:42.128Z,18.15
2022-11-20T06:18:09.361Z,21.00
2022-11-20T06:20:41.958Z,19.60
2022-11-20T06:23:23.217Z,20.38
2022-11-20T06:25:50.278Z,18.13
2022-11-20T06:28:26.711Z,19.30
2022-11-20T06:30:56.838Z,17.17
2022-11-20T06:33:26.856Z,20.08
2022-11-20T06:36:00.011Z,17.73
2022-11-20T06:38:32.928Z,21.85
2022-11-20T06:41:04.083Z,19.77
2022-11-20T06:43:33.857Z,20.58
2022-11-20T06:46:03.868Z,20.00
2022-11-20T06:48:30.881Z,19.63
2022-11-20T06:50:58.288Z,20.70
2022-11-20T06:53:31.990Z,17.65
2022-11-20T06:55:59.463Z,18.83
2022-11-20T06:58:29.866Z,22.05
2022-11-20T07:01:10.318Z,21.52
2022-11-20T07:03:37.154Z,21.70
2022-11-20T07:06:07.658Z,24.02
2022-11-20T07:08:35.062Z,21.52
2022-11-20T07:11:02.856Z,23.25
2022-11-20T07:13:29.829Z,25.60
2022-11-20T07:16:00.587Z,24.50
2022-11-20T07:18:27.762Z,20.92
2022-11-20T07:20:57.079Z,27.88
2022-11-20T07:23:23.903Z,22.45
2022-11-20T07:25:50.828Z,23.33
2022-11-20T07:28:26.448Z,22.33
2022-11-20T07:30:54.383Z,20.77
2022-11-20T07:33:21.484Z,21.40
2022-11-20T07:35:51.292Z,21.25
2022-11-20T07:38:18.235Z,21.70
2022-11-20T07:40:45.085Z,24.52
2022-11-20T07:43:12.214Z,23.77
2022-11-20T07:45:46.927Z,25.35
2022-11-20T07:48:19.224Z,24.83
2022-11-20T07:50:51.164Z,25.63
2022-11-20T07:53:35.420Z,24.13
2022-11-20T07:58:53.603Z,31.75
2022-11-20T08:01:20.296Z,25.30
2022-11-20T08:03:47.462Z,25.67
2022-11-20T08:06:14.192Z,27.92
2022-11-20T08:08:43.110Z,28.15
2022-11-20T08:11:28.483Z,33.38
2022-11-20T08:14:13.516Z,27.90
2022-11-20T08:16:44.472Z,36.47
2022-11-20T08:19:11.575Z,29.70
2022-11-20T08:21:43.562Z,29.25
2022-11-20T08:24:35.836Z,28.90
2022-11-20T08:27:02.866Z,30.98
2022-11-20T08:29:29.793Z,29.58
2022-11-20T08:31:56.567Z,42.45
2022-11-20T08:34:23.641Z,35.30
2022-11-20T08:36:53.637Z,36.90
2022-11-20T08:39:23.140Z,35.97
2022-11-20T08:42:03.033Z,35.65
2022-11-20T08:44:30.044Z,37.40
2022-11-20T08:46:56.932Z,43.10
2022-11-20T08:49:24.132Z,41.70
2022-11-20T08:51:54.873Z,39.42
2022-11-20T08:54:24.707Z,40.13
2022-11-20T08:56:51.715Z,59.75
2022-11-20T08:59:44.134Z,54.58
2022-11-20T09:02:13.561Z,50.45
2022-11-20T09:13:20.644Z,44.97
2022-11-20T09:15:47.776Z,47.20
2022-11-20T09:18:14.528Z,41.22
2022-11-20T09:20:48.916Z,38.55
2022-11-20T09:23:23.979Z,41.80
2022-11-20T09:25:51.757Z,51.63
2022-11-20T09:28:19.591Z,43.95
2022-11-20T09:30:49.201Z,58.85
2022-11-20T09:33:16.390Z,58.17
2022-11-20T09:35:48.771Z,49.28
2022-11-20T09:38:15.867Z,48.78
2022-11-20T09:40:49.278Z,61.38
2022-11-20T09:43:36.343Z,48.63
2022-11-20T09:46:22.014Z,54.25
2022-11-20T09:48:58.872Z,71.63
2022-11-20T09:51:50.923Z,55.33
2022-11-20T09:54:38.523Z,61.72
2022-11-20T09:57:29.281Z,52.97
2022-11-20T10:00:04.291Z,47.35
2022-11-20T10:02:38.167Z,50.78
2022-11-20T10:05:25.187Z,56.88
2022-11-20T10:08:11.448Z,50.55
2022-11-20T10:10:52.652Z,62.30
2022-11-20T10:13:26.966Z,61.10
2022-11-20T10:19:18.096Z,57.13
2022-11-20T10:22:06.704Z,55.25
2022-11-20T10:24:48.479Z,59.90
2022-11-20T10:27:33.815Z,51.75
2022-11-20T10:30:05.521Z,53.53
2022-11-20T10:32:40.127Z,54.40
2022-11-20T10:35:30.234Z,59.58
2022-11-20T10:44:43.197Z,60.75
2022-11-20T10:55:15.121Z,68.00
2022-11-20T10:58:19.334Z,210.50
2022-11-20T11:08:32.501Z,60.40
2022-11-20T11:20:05.077Z,73.22
2022-11-20T11:27:03.055Z,80.22
2022-11-20T11:45:38.917Z,97.97
2022-11-20T11:48:14.966Z,100.15
2022-11-20T11:50:53.584Z,84.82
2022-11-20T11:53:45.758Z,89.32
2022-11-20T11:56:54.947Z,93.43
2022-11-20T11:59:31.934Z,77.18
2022-11-20T12:02:39.202Z,85.68
2022-11-20T12:09:12.197Z,84.28
2022-11-20T12:11:42.684Z,73.35
2022-11-20T12:14:30.760Z,81.50
2022-11-20T12:20:15.456Z,83.18
2022-11-20T12:23:09.944Z,82.50
2022-11-20T12:26:30.781Z,75.90
2022-11-20T12:28:59.134Z,71.00
2022-11-20T12:31:28.333Z,83.43
2022-11-20T12:37:35.792Z,78.78
2022-11-20T12:40:31.502Z,71.65
2022-11-20T12:43:30.005Z,71.53
2022-11-20T12:46:05.771Z,70.72
2022-11-20T12:48:51.538Z,70.63
2022-11-20T12:51:22.737Z,77.25
2022-11-20T12:54:08.103Z,73.45
2022-11-20T12:56:34.842Z,67.43
2022-11-20T12:59:38.505Z,68.95
2022-11-20T13:02:42.037Z,70.63
2022-11-20T13:08:36.320Z,81.65
2022-11-20T13:11:06.955Z,80.82
2022-11-20T13:13:58.610Z,77.97
2022-11-20T13:16:29.948Z,75.45
2022-11-20T13:18:59.309Z,69.35
2022-11-20T13:21:45.262Z,72.72
2022-11-20T13:24:27.003Z,83.22
2022-11-20T13:27:19.442Z,71.53
2022-11-20T13:30:22.500Z,70.97
2022-11-20T13:32:53.319Z,63.55
2022-11-20T13:35:58.714Z,71.10
2022-11-20T13:38:34.055Z,77.15
2022-11-20T13:41:24.461Z,80.43
2022-11-20T13:43:51.411Z,88.60
2022-11-20T13:46:33.646Z,76.40
2022-11-20T13:51:46.815Z,76.40
2022-11-20T13:54:52.923Z,70.38
2022-11-20T13:57:44.892Z,61.55
2022-11-20T14:00:20.354Z,62.20
2022-11-20T14:03:09.059Z,69.15
2022-11-20T14:05:37.611Z,62.35
2022-11-20T14:08:10.769Z,65.68
2022-11-20T14:10:42.198Z,60.35
2022-11-20T14:13:29.071Z,59.75
2022-11-20T14:16:04.450Z,56.55
2022-11-20T14:18:34.463Z,55.70
2022-11-20T14:21:10.124Z,51.10
2022-11-20T14:23:40.289Z,49.78
2022-11-20T14:26:06.916Z,59.72
2022-11-20T14:28:34.172Z,52.15
2022-11-20T14:31:09.568Z,63.85
2022-11-20T14:33:42.326Z,120.15
2022-11-20T14:36:17.457Z,90.57
2022-11-20T14:38:43.950Z,78.28
2022-11-20T14:41:17.602Z,31.75
2022-11-20T14:46:11.328Z,25.35
2022-11-20T14:48:43.142Z,20.08
2022-11-20T14:51:13.796Z,18.45
2022-11-20T14:53:46.674Z,18.77
2022-11-20T14:56:13.638Z,13.68
2022-11-20T14:58:53.220Z,17.75
2022-11-20T15:01:29.717Z,17.20
2022-11-20T15:04:11.733Z,13.75
2022-11-20T15:07:00.591Z,18.92
2022-11-20T15:09:45.594Z,21.45
2022-11-20T15:12:19.201Z,11.80
2022-11-20T15:17:13.181Z,16.33
2022-11-20T15:19:51.702Z,11.35
2022-11-20T15:22:59.843Z,14.32
2022-11-20T15:25:49.831Z,13.30
2022-11-20T16:07:28.848Z,12.85
2022-11-20T16:09:58.799Z,17.25
2022-11-20T16:12:44.071Z,11.85
2022-11-20T16:15:29.833Z,11.68
2022-11-20T16:17:56.611Z,15.88
2022-11-20T16:20:23.383Z,12.68
2022-11-20T16:22:56.529Z,15.43
2022-11-20T16:25:41.482Z,13.90
2022-11-20T16:28:35.063Z,13.48
2022-11-20T16:31:16.602Z,16.00
2022-11-20T16:36:36.214Z,17.10
2022-11-20T16:39:20.376Z,25.10
2022-11-20T16:42:04.793Z,16.92
2022-11-20T16:44:36.998Z,19.48
2022-11-20T16:47:07.591Z,17.20
2022-11-20T16:49:36.943Z,20.45
2022-11-20T16:52:04.005Z,23.30
2022-11-20T16:54:33.708Z,21.17
2022-11-20T16:57:43.826Z,23.15
2022-11-20T17:04:44.059Z,23.15
2022-11-20T17:07:17.847Z,20.17
2022-11-20T17:10:21.661Z,21.55
2022-11-20T17:12:48.285Z,24.95
2022-11-20T17:15:20.537Z,19.20
2022-11-20T17:17:47.194Z,25.77
2022-11-20T17:20:14.500Z,27.13
2022-11-20T17:22:49.684Z,30.90
2022-11-20T17:25:16.225Z,24.90
2022-11-20T17:27:46.042Z,23.90
2022-11-20T17:30:12.880Z,38.03
2022-11-20T17:32:45.424Z,28.15
2022-11-20T17:35:16.727Z,26.77
2022-11-20T17:37:45.457Z,27.67
2022-11-20T17:40:23.195Z,30.48
2022-11-20T17:43:25.428Z,24.67
2022-11-20T17:46:05.918Z,27.77
2022-11-20T17:51:32.460Z,30.45
2022-11-20T17:54:14.046Z,31.35
2022-11-20T17:56:59.620Z,31.17
2022-11-20T17:59:33.536Z,22.35
2022-11-20T18:02:10.925Z,28.30
2022-11-20T18:04:38.950Z,25.85
2022-11-20T18:07:06.108Z,27.67
2022-11-20T18:09:39.733Z,26.27
2022-11-20T18:15:07.425Z,23.88
2022-11-20T18:18:00.582Z,25.08
2022-11-20T18:20:50.516Z,23.13
2022-11-20T18:23:29.040Z,34.33
2022-11-20T18:26:01.498Z,28.75
2022-11-20T18:28:28.075Z,26.73
2022-11-20T18:30:54.839Z,29.30
2022-11-20T18:33:26.980Z,31.10
2022-11-20T18:35:54.952Z,27.48
2022-11-20T18:41:43.192Z,25.65
2022-11-20T18:44:40.435Z,25.98
2022-11-20T18:47:19.018Z,32.40
2022-11-20T18:49:59.783Z,31.60
2022-11-20T18:52:48.494Z,20.40
2022-11-20T18:55:24.691Z,35.88
2022-11-20T18:57:55.402Z,24.38
2022-11-20T19:00:22.807Z,24.20
2022-11-20T19:02:53.795Z,28.05
2022-11-20T19:05:22.996Z,26.15
2022-11-20T19:08:18.044Z,28.35
2022-11-20T19:10:44.998Z,22.13
2022-11-20T19:13:34.479Z,25.77
2022-11-20T19:16:31.344Z,20.88
2022-11-20T19:19:27.116Z,21.52
2022-11-20T19:22:09.594Z,24.73
2022-11-20T19:24:38.930Z,24.83
2022-11-20T19:27:05.529Z,22.70
2022-11-20T19:30:03.671Z,29.75
2022-11-20T19:32:46.812Z,31.77
2022-11-20T19:35:20.089Z,35.03
2022-11-20T19:37:46.862Z,21.63
2022-11-20T19:40:13.723Z,35.78
2022-11-20T19:45:41.798Z,41.47
2022-11-20T19:48:17.949Z,18.88
2022-11-20T19:50:57.269Z,30.63
2022-11-20T19:53:58.537Z,21.83
2022-11-20T19:56:32.338Z,23.83
2022-11-20T20:02:20.530Z,24.95
2022-11-20T20:12:13.261Z,27.40
2022-11-20T20:18:17.785Z,26.15
2022-11-20T20:21:19.938Z,30.27
2022-11-20T20:27:12.141Z,32.80
2022-11-20T20:53:40.311Z,37.53
2022-11-20T20:56:27.974Z,33.25
2022-11-20T20:59:01.895Z,27.95
2022-11-20T21:04:28.895Z,39.17
2022-11-20T21:07:23.629Z,38.47
2022-11-20T21:09:50.368Z,30.63
2022-11-20T21:12:17.170Z,28.60
2022-11-20T21:14:43.954Z,31.27
2022-11-20T21:17:19.725Z,29.20
2022-11-20T21:19:46.297Z,27.45
2022-11-20T21:22:36.915Z,35.13
2022-11-20T21:25:06.153Z,22.75
2022-11-20T21:27:39.562Z,30.33
2022-11-20T21:30:07.863Z,30.40
2022-11-20T21:32:55.560Z,28.33
2022-11-20T21:35:27.230Z,29.63
2022-11-20T21:38:03.444Z,32.72
2022-11-20T21:40:32.712Z,30.05
2022-11-20T21:43:02.557Z,31.50
2022-11-20T21:45:40.966Z,30.73
2022-11-20T21:48:17.663Z,30.08
2022-11-20T21:51:06.778Z,29.50
2022-11-20T21:53:34.279Z,26.25
2022-11-20T21:56:17.741Z,27.92
2022-11-20T21:58:49.832Z,30.27
2022-11-20T22:01:21.634Z,31.67
2022-11-20T22:03:59.359Z,32.13
2022-11-20T22:06:40.179Z,30.10
2022-11-20T22:09:11.869Z,36.97
2022-11-20T22:11:42.883Z,35.53
2022-11-20T22:14:31.229Z,27.17
2022-11-20T22:17:00.675Z,33.08
2022-11-20T22:19:30.653Z,26.90
2022-11-20T22:21:57.595Z,32.15
2022-11-20T22:27:12.447Z,34.97
2022-11-20T22:41:07.052Z,26.30
2022-11-20T22:43:34.174Z,28.15
2022-11-20T22:46:06.810Z,26.77
2022-11-20T22:48:46.405Z,29.70
2022-11-20T22:51:20.720Z,36.20
2022-11-20T22:53:56.631Z,30.10
2022-11-20T22:56:31.054Z,26.00
2022-11-20T22:58:58.435Z,35.08
2022-11-20T23:01:29.458Z,26.67
2022-11-20T23:03:57.270Z,37.45
2022-11-20T23:06:24.510Z,28.27
2022-11-20T23:08:57.514Z,33.45
2022-11-20T23:11:26.139Z,29.58
2022-11-20T23:13:57.171Z,27.55
2022-11-20T23:16:25.089Z,30.52
2022-11-20T23:18:59.915Z,34.72
2022-11-20T23:21:27.112Z,31.23
2022-11-20T23:23:58.221Z,29.88
2022-11-20T23:26:29.506Z,27.88
2022-11-20T23:28:57.776Z,24.58
2022-11-20T23:31:26.114Z,25.80
2022-11-20T23:33:53.097Z,28.40
2022-11-20T23:36:27.529Z,31.50
2022-11-20T23:38:54.344Z,23.63
2022-11-20T23:41:21.995Z,28.35
2022-11-20T23:43:48.880Z,24.38
2022-11-20T23:46:20.851Z,26.42
2022-11-20T23:48:47.556Z,25.70
2022-11-20T23:51:14.862Z,23.50
2022-11-20T23:53:41.602Z,23.98
2022-11-20T23:56:09.029Z,25.95
2022-11-20T23:58:42.624Z,21.20
